Time;durP1;ratioP1;P1;durP2;ratioP2;P2;SDS_P1;SDS_P2;PMS_P1;PMS_P2;Temp;Humidity;BMP_temperature;BMP_pressure;BME280_temperature;BME280_humidity;BME280_pressure;Samples;Min_cycle;Max_cycle;Signal;HPM_P1;HPM_P2
2021/04/02 00:01:00;;;;;;;;;;;;;;;;;;1495620;39;19928;-75
2021/04/02 00:02:02;;;;;;;;;;;;;;;;;;1495632;39;20043;-75
2021/04/02 00:03:07;;;;;;;;;;;;;;;;;;1494632;39;20023;-77
2021/04/02 00:04:08;;;;;;;;;;;;;;;;;;1495614;39;20224;-76
2021/04/02 00:05:13;;;;;;;;;;;;;;;;;;1495520;39;20027;-75
2021/04/02 00:06:15;;;;;;;;;;;;;;;;;;1495711;39;19928;-76
2021/04/02 00:07:16;;;;;;;;;;;;;;;;;;1495537;39;20061;-77
2021/04/02 00:08:16;;;;;;;;;;;;;;;;;;1494287;39;20312;-76
2021/04/02 00:09:17;;;;;;;;;;;;;;;;;;1495027;39;19943;-75
2021/04/02 00:10:22;;;;;;;;;;;;;;;;;;1494881;39;20020;-75
2021/04/02 00:11:24;;;;;;;;;;;;;;;;;;1494424;39;19931;-74
2021/04/02 00:12:25;;;;;;;;;;;;;;;;;;1495560;39;19951;-76
2021/04/02 00:13:30;;;;;;;;;;;;;;;;;;1495682;39;20200;-75
2021/04/02 00:14:31;;;;;;;;;;;;;;;;;;1494954;39;20033;-78
2021/04/02 00:15:32;;;;;;;;;;;;;;;;;;1493798;39;19962;-75
2021/04/02 00:16:33;;;;;;;;;;;;;;;;;;1495594;39;19939;-74
2021/04/02 00:17:34;;;;;;;;;;;;;;;;;;1495014;39;19951;-74
2021/04/02 00:18:36;;;;;;;;;;;;;;;;;;1495689;39;19932;-75
2021/04/02 00:19:36;;;;;;;;;;;;;;;;;;1494560;39;20036;-75
2021/04/02 00:20:37;;;;;;;;;;;;;;;;;;1494828;39;19963;-75
2021/04/02 00:21:38;;;;;;;;;;;;;;;;;;1495302;39;19928;-74
2021/04/02 00:22:39;;;;;;;;;;;;;;;;;;1494882;39;20319;-74
2021/04/02 00:23:41;;;;;;;;;;;;;;;;;;1490740;39;19928;-74
2021/04/02 00:24:42;;;;;;;;;;;;;;;;;;1495129;39;19939;-74
2021/04/02 00:25:43;;;;;;;;;;;;;;;;;;1495503;39;20047;-74
2021/04/02 00:26:44;;;;;;;;;;;;;;;;;;1495176;39;20390;-74
2021/04/02 00:27:44;;;;;;;;;;;;;;;;;;1489600;39;20049;-73
2021/04/02 00:28:47;;;;;;;;;;;;;;;;;;1494891;39;20080;-74
2021/04/02 00:29:47;;;;;;;;;;;;;;;;;;1495471;39;19940;-75
2021/04/02 00:30:51;;;;;;;;;;;;;;;;;;1495237;39;19939;-73
2021/04/02 00:31:52;;;;;;;;;;;;;;;;;;1495287;39;19960;-74
2021/04/02 00:32:53;;;;;;;;;;;;;;;;;;1494548;39;20000;-74
2021/04/02 00:33:54;;;;;;;;;;;;;;;;;;1494902;39;19971;-74
2021/04/02 00:34:55;;;;;;;;;;;;;;;;;;1495566;39;19935;-74
2021/04/02 00:35:56;;;;;;;;;;;;;;;;;;1494583;39;19974;-73
2021/04/02 00:36:57;;;;;;;;;;;;;;;;;;1490801;39;19967;-74
2021/04/02 00:37:58;;;;;;;;;;;;;;;;;;1494737;39;20047;-74
2021/04/02 00:38:59;;;;;;;;;;;;;;;;;;1495405;39;19932;-74
2021/04/02 00:40:00;;;;;;;;;;;;;;;;;;1494194;39;19928;-74
2021/04/02 00:41:05;;;;;;;;;;;;;;;;;;1495502;39;19943;-74
2021/04/02 00:42:06;;;;;;;;;;;;;;;;;;1495164;39;20416;-74
2021/04/02 00:43:08;;;;;;;;;;;;;;;;;;1494626;39;19955;-75
2021/04/02 00:44:09;;;;;;;;;;;;;;;;;;1495557;39;20039;-76
2021/04/02 00:45:11;;;;;;;;;;;;;;;;;;1495076;39;19955;-75
2021/04/02 00:46:13;;;;;;;;;;;;;;;;;;1495485;39;20031;-76
2021/04/02 00:47:14;;;;;;;;;;;;;;;;;;1495509;39;19927;-74
2021/04/02 00:48:15;;;;;;;;;;;;;;;;;;1495148;39;19946;-73
2021/04/02 00:49:16;;;;;;;;;;;;;;;;;;1495294;39;20042;-74
2021/04/02 00:50:21;;;;;;;;;;;;;;;;;;1494904;39;19955;-73
2021/04/02 00:51:22;;;;;;;;;;;;;;;;;;1495046;39;20391;-75
2021/04/02 00:52:23;;;;;;;;;;;;;;;;;;1494410;39;19936;-74
2021/04/02 00:53:25;;;;;;;;;;;;;;;;;;1494669;39;19927;-76
2021/04/02 00:54:26;;;;;;;;;;;;;;;;;;1494956;39;19943;-76
2021/04/02 00:55:27;;;;;;;;;;;;;;;;;;1495384;39;19931;-75
2021/04/02 00:56:29;;;;;;;;;;;;;;;;;;1495476;39;19932;-75
2021/04/02 00:57:31;;;;;;;;;;;;;;;;;;1495280;39;20275;-76
2021/04/02 00:58:35;;;;;;;;;;;;;;;;;;1495565;39;19927;-76
2021/04/02 00:59:36;;;;;;;;;;;;;;;;;;1495311;39;20355;-77
2021/04/02 01:00:39;;;;;;;;;;;;;;;;;;1494979;39;19928;-76
2021/04/02 01:01:40;;;;;;;;;;;;;;;;;;1495221;39;20023;-75
2021/04/02 01:02:41;;;;;;;;;;;;;;;;;;1495204;39;19939;-75
2021/04/02 01:03:43;;;;;;;;;;;;;;;;;;1495406;39;20285;-74
2021/04/02 01:04:44;;;;;;;;;;;;;;;;;;1494615;39;19967;-75
2021/04/02 01:05:46;;;;;;;;;;;;;;;;;;1495356;39;19959;-75
2021/04/02 01:06:47;;;;;;;;;;;;;;;;;;1495431;39;19976;-75
2021/04/02 01:07:53;;;;;;;;;;;;;;;;;;1494317;39;20100;-74
2021/04/02 01:08:55;;;;;;;;;;;;;;;;;;1495125;39;20093;-74
2021/04/02 01:09:56;;;;;;;;;;;;;;;;;;1494762;39;20377;-74
2021/04/02 01:10:58;;;;;;;;;;;;;;;;;;1490663;39;19931;-74
2021/04/02 01:12:02;;;;;;;;;;;;;;;;;;1494854;39;19945;-74
2021/04/02 01:13:13;;;;;;;;;;;;;;;;;;1494618;39;20312;-75
2021/04/02 01:14:14;;;;;;;;;;;;;;;;;;1494681;39;20055;-75
2021/04/02 01:15:23;;;;;;;;;;;;;;;;;;1494955;39;19951;-75
2021/04/02 01:16:32;;;;;;;;;;;;;;;;;;1494753;39;20388;-75
2021/04/02 01:17:33;;;;;;;;;;;;;;;;;;1494184;39;19932;-76
2021/04/02 01:18:53;;;;;;;;;;;;;;;;;;1494946;39;19952;-76
2021/04/02 01:19:56;;;;;;;;;;;;;;;;;;1494470;39;20047;-75
2021/04/02 01:20:59;;;;;;;;;;;;;;;;;;1494924;39;19952;-75
2021/04/02 01:22:06;;;;;;;;;;;;;;;;;;1494574;39;19955;-76
2021/04/02 01:23:12;;;;;;;;;;;;;;;;;;1494285;39;20038;-74
2021/04/02 01:24:36;;;;;;;;;;;;;;;;;;1495256;39;19927;-74
2021/04/02 01:25:42;;;;;;;;;;;;;;;;;;1481864;40;20053;-74
2021/04/02 01:26:57;;;;;;;;;;;;;;;;;;1494922;39;19931;-75
2021/04/02 01:28:13;;;;;;;;;;;;;;;;;;1495238;39;19959;-74
2021/04/02 01:29:19;;;;;;;;;;;;;;;;;;1494905;39;20023;-74
2021/04/02 01:30:21;;;;;;;;;;;;;;;;;;1493737;39;19927;-74
2021/04/02 01:31:23;;;;;;;;;;;;;;;;;;1495468;39;20008;-74
2021/04/02 01:32:28;;;;;;;;;;;;;;;;;;1495187;39;19963;-75
2021/04/02 01:33:29;;;;;;;;;;;;;;;;;;1494356;39;19959;-75
2021/04/02 01:34:34;;;;;;;;;;;;;;;;;;1494154;39;19928;-75
2021/04/02 01:35:37;;;;;;;;;;;;;;;;;;1494411;39;20273;-76
2021/04/02 01:36:40;;;;;;;;;;;;;;;;;;1494071;39;19932;-75
2021/04/02 01:37:44;;;;;;;;;;;;;;;;;;1494164;39;20124;-75
2021/04/02 01:38:46;;;;;;;;;;;;;;;;;;1494757;39;20046;-75
2021/04/02 01:39:49;;;;;;;;;;;;;;;;;;1495029;39;19928;-78
2021/04/02 01:40:52;;;;;;;;;;;;;;;;;;1494766;39;19928;-79
2021/04/02 01:41:55;;;;;;;;;;;;;;;;;;1494814;39;19927;-80
2021/04/02 01:43:00;;;;;;;;;;;;;;;;;;1490855;39;19955;-79
2021/04/02 01:44:02;;;;;;;;;;;;;;;;;;1494273;39;20288;-78
2021/04/02 01:45:04;;;;;;;;;;;;;;;;;;1490512;39;20282;-78
2021/04/02 01:46:06;;;;;;;;;;;;;;;;;;1494818;39;20014;-78
2021/04/02 01:47:08;;;;;;;;;;;;;;;;;;1494600;39;19928;-78
2021/04/02 01:48:10;;;;;;;;;;;;;;;;;;1494288;39;20085;-78
2021/04/02 01:49:11;;;;;;;;;;;;;;;;;;1495220;39;20285;-78
2021/04/02 01:50:14;;;;;;;;;;;;;;;;;;1495354;39;20054;-78
2021/04/02 01:51:16;;;;;;;;;;;;;;;;;;1494693;39;19951;-78
2021/04/02 01:52:18;;;;;;;;;;;;;;;;;;1494374;39;20044;-79
2021/04/02 01:53:21;;;;;;;;;;;;;;;;;;1495163;39;19939;-78
2021/04/02 01:54:22;;;;;;;;;;;;;;;;;;1494088;39;19928;-80
2021/04/02 01:55:23;;;;;;;;;;;;;;;;;;1494262;39;20054;-78
2021/04/02 01:56:25;;;;;;;;;;;;;;;;;;1494725;39;20258;-78
2021/04/02 01:57:28;;;;;;;;;;;;;;;;;;1494318;39;20051;-78
2021/04/02 01:58:30;;;;;;;;;;;;;;;;;;1494942;39;19928;-79
2021/04/02 01:59:32;;;;;;;;;;;;;;;;;;1494534;39;20239;-78
2021/04/02 02:00:53;;;;;;;;;;;;;;;;;;1494466;39;19927;-78
2021/04/02 02:01:54;;;;;;;;;;;;;;;;;;1493669;39;19928;-78
2021/04/02 02:02:55;;;;;;;;;;;;;;;;;;1494340;39;20264;-78
2021/04/02 02:03:57;;;;;;;;;;;;;;;;;;1494498;39;19946;-79
2021/04/02 02:04:58;;;;;;;;;;;;;;;;;;1495402;39;19951;-78
2021/04/02 02:06:00;;;;;;;;;;;;;;;;;;1495181;39;20032;-78
2021/04/02 02:07:02;;;;;;;;;;;;;;;;;;1494180;39;20368;-77
2021/04/02 02:08:04;;;;;;;;;;;;;;;;;;1494335;39;20004;-78
2021/04/02 02:09:11;;;;;;;;;;;;;;;;;;1494624;39;20039;-78
2021/04/02 02:10:13;;;;;;;;;;;;;;;;;;1495196;39;20391;-79
2021/04/02 02:11:18;;;;;;;;;;;;;;;;;;1495278;39;20038;-79
2021/04/02 02:12:19;;;;;;;;;;;;;;;;;;1494880;39;19946;-78
2021/04/02 02:13:21;;;;;;;;;;;;;;;;;;1495167;39;20389;-79
2021/04/02 02:14:22;;;;;;;;;;;;;;;;;;1495222;39;19931;-78
2021/04/02 02:15:24;;;;;;;;;;;;;;;;;;1494167;39;19970;-77
2021/04/02 02:16:27;;;;;;;;;;;;;;;;;;1494546;39;20075;-78
2021/04/02 02:17:29;;;;;;;;;;;;;;;;;;1495303;39;19952;-78
2021/04/02 02:18:30;;;;;;;;;;;;;;;;;;1494360;39;20256;-77
2021/04/02 02:19:33;;;;;;;;;;;;;;;;;;1493775;39;19935;-77
2021/04/02 02:20:36;;;;;;;;;;;;;;;;;;1494942;39;20026;-79
2021/04/02 02:21:39;;;;;;;;;;;;;;;;;;1495378;39;19951;-80
2021/04/02 02:22:41;;;;;;;;;;;;;;;;;;1494937;39;19955;-77
2021/04/02 02:23:43;;;;;;;;;;;;;;;;;;1495208;39;20276;-78
2021/04/02 02:24:45;;;;;;;;;;;;;;;;;;1495128;39;19940;-78
2021/04/02 02:25:46;;;;;;;;;;;;;;;;;;1494849;39;20027;-79
2021/04/02 02:26:47;;;;;;;;;;;;;;;;;;1495035;39;20143;-79
2021/04/02 02:27:48;;;;;;;;;;;;;;;;;;1495074;39;20633;-78
2021/04/02 02:28:49;;;;;;;;;;;;;;;;;;1490341;39;19928;-78
2021/04/02 02:29:50;;;;;;;;;;;;;;;;;;1490485;39;19928;-78
2021/04/02 02:30:52;;;;;;;;;;;;;;;;;;1494994;39;20276;-78
2021/04/02 02:31:53;;;;;;;;;;;;;;;;;;1494242;39;19928;-79
2021/04/02 02:32:54;;;;;;;;;;;;;;;;;;1494576;39;20272;-78
2021/04/02 02:33:55;;;;;;;;;;;;;;;;;;1495254;39;19951;-79
2021/04/02 02:34:56;;;;;;;;;;;;;;;;;;1495175;39;20485;-79
2021/04/02 02:35:59;;;;;;;;;;;;;;;;;;1495287;39;20048;-79
2021/04/02 02:37:01;;;;;;;;;;;;;;;;;;1495278;39;20067;-79
2021/04/02 02:38:02;;;;;;;;;;;;;;;;;;1495098;39;19963;-79
2021/04/02 02:39:11;;;;;;;;;;;;;;;;;;1495326;39;20038;-79
2021/04/02 02:40:14;;;;;;;;;;;;;;;;;;1494897;39;19952;-78
2021/04/02 02:41:16;;;;;;;;;;;;;;;;;;1494982;39;20039;-79
2021/04/02 02:42:17;;;;;;;;;;;;;;;;;;1495170;39;20035;-79
2021/04/02 02:43:19;;;;;;;;;;;;;;;;;;1494171;39;20011;-79
2021/04/02 02:44:20;;;;;;;;;;;;;;;;;;1493686;39;20039;-80
2021/04/02 02:45:21;;;;;;;;;;;;;;;;;;1495072;39;19943;-79
2021/04/02 02:46:26;;;;;;;;;;;;;;;;;;1494547;39;20283;-78
2021/04/02 02:47:27;;;;;;;;;;;;;;;;;;1494529;39;19956;-79
2021/04/02 02:48:28;;;;;;;;;;;;;;;;;;1494874;39;20257;-78
2021/04/02 02:49:29;;;;;;;;;;;;;;;;;;1494963;39;19959;-78
2021/04/02 02:50:33;;;;;;;;;;;;;;;;;;1494616;39;20012;-78
2021/04/02 02:51:36;;;;;;;;;;;;;;;;;;1494447;39;20132;-78
2021/04/02 02:52:38;;;;;;;;;;;;;;;;;;1494966;39;19951;-79
2021/04/02 02:53:41;;;;;;;;;;;;;;;;;;1495167;39;19928;-78
2021/04/02 02:54:42;;;;;;;;;;;;;;;;;;1495279;39;20205;-80
2021/04/02 02:55:45;;;;;;;;;;;;;;;;;;1495101;39;20004;-79
2021/04/02 02:56:48;;;;;;;;;;;;;;;;;;1494411;39;20462;-81
2021/04/02 02:57:50;;;;;;;;;;;;;;;;;;1490576;39;19928;-79
2021/04/02 02:58:53;;;;;;;;;;;;;;;;;;1490865;39;20044;-81
2021/04/02 02:59:56;;;;;;;;;;;;;;;;;;1490913;39;19951;-79
2021/04/02 03:00:57;;;;;;;;;;;;;;;;;;1490745;39;20112;-79
2021/04/02 03:01:59;;;;;;;;;;;;;;;;;;1490715;39;19955;-79
2021/04/02 03:03:02;;;;;;;;;;;;;;;;;;1489802;39;19928;-79
2021/04/02 03:04:05;;;;;;;;;;;;;;;;;;1490191;39;20011;-79
2021/04/02 03:05:07;;;;;;;;;;;;;;;;;;1490975;39;19928;-79
2021/04/02 03:06:07;;;;;;;;;;;;;;;;;;1490901;39;20046;-79
2021/04/02 03:07:10;;;;;;;;;;;;;;;;;;1491547;39;19928;-79
2021/04/02 03:08:13;;;;;;;;;;;;;;;;;;1491309;39;19934;-80
2021/04/02 03:09:16;;;;;;;;;;;;;;;;;;1490725;39;20484;-81
2021/04/02 03:10:17;;;;;;;;;;;;;;;;;;1495159;39;20017;-80
2021/04/02 03:11:19;;;;;;;;;;;;;;;;;;1495145;39;19931;-79
2021/04/02 03:12:21;;;;;;;;;;;;;;;;;;1495008;39;19928;-80
2021/04/02 03:13:22;;;;;;;;;;;;;;;;;;1494825;39;20039;-79
2021/04/02 03:14:24;;;;;;;;;;;;;;;;;;1490876;39;19928;-79
2021/04/02 03:15:25;;;;;;;;;;;;;;;;;;1495087;39;20039;-80
2021/04/02 03:16:27;;;;;;;;;;;;;;;;;;1495740;39;20280;-80
2021/04/02 03:17:28;;;;;;;;;;;;;;;;;;1495654;39;20383;-78
2021/04/02 03:18:30;;;;;;;;;;;;;;;;;;1494871;39;20372;-78
2021/04/02 03:19:31;;;;;;;;;;;;;;;;;;1495033;39;19938;-79
2021/04/02 03:20:36;;;;;;;;;;;;;;;;;;1495661;39;19936;-78
2021/04/02 03:21:37;;;;;;;;;;;;;;;;;;1490751;39;19928;-78
2021/04/02 03:22:38;;;;;;;;;;;;;;;;;;1485790;39;20545;-80
2021/04/02 03:23:42;;;;;;;;;;;;;;;;;;1490247;39;19932;-80
2021/04/02 03:24:42;;;;;;;;;;;;;;;;;;1490980;39;19928;-78
2021/04/02 03:25:46;;;;;;;;;;;;;;;;;;1490743;39;19943;-79
2021/04/02 03:26:51;;;;;;;;;;;;;;;;;;1490877;39;20317;-79
2021/04/02 03:27:53;;;;;;;;;;;;;;;;;;1490634;39;19936;-79
2021/04/02 03:28:55;;;;;;;;;;;;;;;;;;1490801;39;19964;-78
2021/04/02 03:29:56;;;;;;;;;;;;;;;;;;1490889;39;20030;-79
2021/04/02 03:30:57;;;;;;;;;;;;;;;;;;1491574;39;20062;-79
2021/04/02 03:32:01;;;;;;;;;;;;;;;;;;1491387;39;19966;-78
2021/04/02 03:33:14;;;;;;;;;;;;;;;;;;1491418;39;19951;-81
2021/04/02 03:34:17;;;;;;;;;;;;;;;;;;1491165;39;20032;-80
2021/04/02 03:35:18;;;;;;;;;;;;;;;;;;1495811;39;19927;-78
2021/04/02 03:36:20;;;;;;;;;;;;;;;;;;1495551;39;19928;-80
2021/04/02 03:37:22;;;;;;;;;;;;;;;;;;1495787;39;19951;-79
2021/04/02 03:38:25;;;;;;;;;;;;;;;;;;1495698;39;19951;-79
2021/04/02 03:39:28;;;;;;;;;;;;;;;;;;1495621;39;19935;-80
2021/04/02 03:40:30;;;;;;;;;;;;;;;;;;1495527;39;19951;-79
2021/04/02 03:41:32;;;;;;;;;;;;;;;;;;1495529;39;20043;-79
2021/04/02 03:42:35;;;;;;;;;;;;;;;;;;1495511;39;19951;-79
2021/04/02 03:43:37;;;;;;;;;;;;;;;;;;1495466;39;19959;-79
2021/04/02 03:44:40;;;;;;;;;;;;;;;;;;1495825;39;19928;-79
2021/04/02 03:45:42;;;;;;;;;;;;;;;;;;1495649;39;20263;-80
2021/04/02 03:46:43;;;;;;;;;;;;;;;;;;1494749;39;20035;-80
2021/04/02 03:47:45;;;;;;;;;;;;;;;;;;1495431;39;20281;-79
2021/04/02 03:48:47;;;;;;;;;;;;;;;;;;1495369;39;20040;-79
2021/04/02 03:49:49;;;;;;;;;;;;;;;;;;1495107;39;19959;-78
2021/04/02 03:50:55;;;;;;;;;;;;;;;;;;1495722;39;20023;-79
2021/04/02 03:52:01;;;;;;;;;;;;;;;;;;1495120;39;20380;-78
2021/04/02 03:53:07;;;;;;;;;;;;;;;;;;1494926;39;19943;-78
2021/04/02 03:54:10;;;;;;;;;;;;;;;;;;1495045;39;20273;-78
2021/04/02 03:55:13;;;;;;;;;;;;;;;;;;1495772;39;19928;-79
2021/04/02 03:56:16;;;;;;;;;;;;;;;;;;1495497;39;20260;-79
2021/04/02 03:57:18;;;;;;;;;;;;;;;;;;1495337;39;19942;-79
2021/04/02 03:58:20;;;;;;;;;;;;;;;;;;1495334;39;19972;-79
2021/04/02 03:59:22;;;;;;;;;;;;;;;;;;1494178;39;19928;-79
2021/04/02 04:00:28;;;;;;;;;;;;;;;;;;1495334;39;20411;-79
2021/04/02 04:01:31;;;;;;;;;;;;;;;;;;1495782;39;20120;-78
2021/04/02 04:02:32;;;;;;;;;;;;;;;;;;1494903;39;20336;-79
2021/04/02 04:03:35;;;;;;;;;;;;;;;;;;1494727;39;19956;-79
2021/04/02 04:04:35;;;;;;;;;;;;;;;;;;1495547;39;19955;-78
2021/04/02 04:05:37;;;;;;;;;;;;;;;;;;1495601;39;19932;-79
2021/04/02 04:06:40;;;;;;;;;;;;;;;;;;1495292;39;20359;-79
2021/04/02 04:07:43;;;;;;;;;;;;;;;;;;1495513;39;20293;-79
2021/04/02 04:08:45;;;;;;;;;;;;;;;;;;1495543;39;20028;-79
2021/04/02 04:09:46;;;;;;;;;;;;;;;;;;1495759;39;19966;-79
2021/04/02 04:10:49;;;;;;;;;;;;;;;;;;1495541;39;19928;-79
2021/04/02 04:11:50;;;;;;;;;;;;;;;;;;1494635;39;20296;-78
2021/04/02 04:12:52;;;;;;;;;;;;;;;;;;1495442;39;20040;-79
2021/04/02 04:13:53;;;;;;;;;;;;;;;;;;1494983;39;20295;-79
2021/04/02 04:14:55;;;;;;;;;;;;;;;;;;1494959;39;19993;-78
2021/04/02 04:15:57;;;;;;;;;;;;;;;;;;1495591;39;20599;-79
2021/04/02 04:16:58;;;;;;;;;;;;;;;;;;1495514;39;19928;-79
2021/04/02 04:18:00;;;;;;;;;;;;;;;;;;1495495;39;20044;-78
2021/04/02 04:19:01;;;;;;;;;;;;;;;;;;1495398;39;19927;-78
2021/04/02 04:20:03;;;;;;;;;;;;;;;;;;1495566;39;20148;-78
2021/04/02 04:21:06;;;;;;;;;;;;;;;;;;1494038;39;19951;-79
2021/04/02 04:22:07;;;;;;;;;;;;;;;;;;1494512;39;19955;-79
2021/04/02 04:23:08;;;;;;;;;;;;;;;;;;1495511;39;20471;-79
2021/04/02 04:24:17;;;;;;;;;;;;;;;;;;1494515;39;19932;-80
2021/04/02 04:25:23;;;;;;;;;;;;;;;;;;1495628;39;20256;-79
2021/04/02 04:26:26;;;;;;;;;;;;;;;;;;1495493;39;20281;-79
2021/04/02 04:27:27;;;;;;;;;;;;;;;;;;1494847;39;19924;-80
2021/04/02 04:28:28;;;;;;;;;;;;;;;;;;1494901;39;19942;-79
2021/04/02 04:29:29;;;;;;;;;;;;;;;;;;1494744;39;19955;-80
2021/04/02 04:30:31;;;;;;;;;;;;;;;;;;1495514;39;20043;-78
2021/04/02 04:31:33;;;;;;;;;;;;;;;;;;1495538;39;20039;-79
2021/04/02 04:32:34;;;;;;;;;;;;;;;;;;1495460;39;20043;-79
2021/04/02 04:33:38;;;;;;;;;;;;;;;;;;1495521;39;20028;-79
2021/04/02 04:34:39;;;;;;;;;;;;;;;;;;1495524;39;19952;-79
2021/04/02 04:35:41;;;;;;;;;;;;;;;;;;1495574;39;20036;-79
2021/04/02 04:36:42;;;;;;;;;;;;;;;;;;1494040;39;20335;-79
2021/04/02 04:37:44;;;;;;;;;;;;;;;;;;1495523;39;19946;-80
2021/04/02 04:38:46;;;;;;;;;;;;;;;;;;1495522;39;19963;-79
2021/04/02 04:39:47;;;;;;;;;;;;;;;;;;1495414;39;19963;-80
2021/04/02 04:40:50;;;;;;;;;;;;;;;;;;1495278;39;19971;-79
2021/04/02 04:41:53;;;;;;;;;;;;;;;;;;1495603;39;19928;-79
2021/04/02 04:42:54;;;;;;;;;;;;;;;;;;1495329;39;19951;-79
2021/04/02 04:43:57;;;;;;;;;;;;;;;;;;1494109;39;19932;-79
2021/04/02 04:44:58;;;;;;;;;;;;;;;;;;1494722;39;20332;-79
2021/04/02 04:45:59;;;;;;;;;;;;;;;;;;1495528;39;19955;-80
2021/04/02 04:47:00;;;;;;;;;;;;;;;;;;1495336;39;19931;-79
2021/04/02 04:48:01;;;;;;;;;;;;;;;;;;1495484;39;19955;-80
2021/04/02 04:49:02;;;;;;;;;;;;;;;;;;1494836;39;19928;-81
2021/04/02 04:50:05;;;;;;;;;;;;;;;;;;1495324;39;20404;-78
2021/04/02 04:51:07;;;;;;;;;;;;;;;;;;1495087;39;20185;-79
2021/04/02 04:52:08;;;;;;;;;;;;;;;;;;1490645;39;20016;-80
2021/04/02 04:53:24;;;;;;;;;;;;;;;;;;1490373;39;19931;-79
2021/04/02 04:54:26;;;;;;;;;;;;;;;;;;1495485;39;19927;-79
2021/04/02 04:55:28;;;;;;;;;;;;;;;;;;1495442;39;19993;-79
2021/04/02 04:56:29;;;;;;;;;;;;;;;;;;1495534;39;20030;-81
2021/04/02 04:57:33;;;;;;;;;;;;;;;;;;1494832;39;19927;-79
2021/04/02 04:58:36;;;;;;;;;;;;;;;;;;1494921;39;20280;-80
2021/04/02 04:59:38;;;;;;;;;;;;;;;;;;1495348;39;20370;-79
2021/04/02 05:00:41;;;;;;;;;;;;;;;;;;1494615;39;19965;-81
2021/04/02 05:01:44;;;;;;;;;;;;;;;;;;1489626;39;19951;-80
2021/04/02 05:02:46;;;;;;;;;;;;;;;;;;1494982;39;20028;-80
2021/04/02 05:03:47;;;;;;;;;;;;;;;;;;1495510;39;20039;-78
2021/04/02 05:04:49;;;;;;;;;;;;;;;;;;1495563;39;19936;-82
2021/04/02 05:05:53;;;;;;;;;;;;;;;;;;1495060;39;20271;-82
2021/04/02 05:07:00;;;;;;;;;;;;;;;;;;1495295;39;20015;-78
2021/04/02 05:08:03;;;;;;;;;;;;;;;;;;1495292;39;20261;-78
2021/04/02 05:09:04;;;;;;;;;;;;;;;;;;1495466;39;20039;-78
2021/04/02 05:10:06;;;;;;;;;;;;;;;;;;1494626;39;19965;-79
2021/04/02 05:11:06;;;;;;;;;;;;;;;;;;1494418;39;19955;-80
2021/04/02 05:12:09;;;;;;;;;;;;;;;;;;1495504;39;19972;-79
2021/04/02 05:13:11;;;;;;;;;;;;;;;;;;1495452;39;19940;-78
2021/04/02 05:14:13;;;;;;;;;;;;;;;;;;1491622;39;20076;-78
2021/04/02 05:15:15;;;;;;;;;;;;;;;;;;1495405;39;19927;-80
2021/04/02 05:16:22;;;;;;;;;;;;;;;;;;1495528;39;19955;-79
2021/04/02 05:17:23;;;;;;;;;;;;;;;;;;1495490;39;19951;-81
2021/04/02 05:18:24;;;;;;;;;;;;;;;;;;1495350;39;19927;-79
2021/04/02 05:19:26;;;;;;;;;;;;;;;;;;1494784;39;19956;-80
2021/04/02 05:20:39;;;;;;;;;;;;;;;;;;1494665;39;20277;-80
2021/04/02 05:21:41;;;;;;;;;;;;;;;;;;1494993;39;20260;-78
2021/04/02 05:22:42;;;;;;;;;;;;;;;;;;1495399;39;19979;-79
2021/04/02 05:23:43;;;;;;;;;;;;;;;;;;1495334;39;20493;-79
2021/04/02 05:24:44;;;;;;;;;;;;;;;;;;1494888;39;19963;-79
2021/04/02 05:25:45;;;;;;;;;;;;;;;;;;1494629;39;19996;-78
2021/04/02 05:26:46;;;;;;;;;;;;;;;;;;1494619;39;19963;-79
2021/04/02 05:27:46;;;;;;;;;;;;;;;;;;1495246;39;19931;-79
2021/04/02 05:28:49;;;;;;;;;;;;;;;;;;1494942;39;19946;-79
2021/04/02 05:29:53;;;;;;;;;;;;;;;;;;1495441;39;20037;-81
2021/04/02 05:30:54;;;;;;;;;;;;;;;;;;1495363;39;19962;-78
2021/04/02 05:31:55;;;;;;;;;;;;;;;;;;1495499;39;19932;-79
2021/04/02 05:32:56;;;;;;;;;;;;;;;;;;1494661;39;20061;-79
2021/04/02 05:33:57;;;;;;;;;;;;;;;;;;1494886;39;20018;-80
2021/04/02 05:34:58;;;;;;;;;;;;;;;;;;1495342;39;20651;-77
2021/04/02 05:36:00;;;;;;;;;;;;;;;;;;1495059;39;19932;-79
2021/04/02 05:37:01;;;;;;;;;;;;;;;;;;1494941;39;19956;-78
2021/04/02 05:38:01;;;;;;;;;;;;;;;;;;1495266;39;19959;-79
2021/04/02 05:39:02;;;;;;;;;;;;;;;;;;1494365;39;20241;-79
2021/04/02 05:40:04;;;;;;;;;;;;;;;;;;1495320;39;19951;-78
2021/04/02 05:41:09;;;;;;;;;;;;;;;;;;1495098;39;20047;-79
2021/04/02 05:42:12;;;;;;;;;;;;;;;;;;1495436;39;19951;-76
2021/04/02 05:43:19;;;;;;;;;;;;;;;;;;1495334;39;19955;-78
2021/04/02 05:44:30;;;;;;;;;;;;;;;;;;1495353;39;19956;-79
2021/04/02 05:45:34;;;;;;;;;;;;;;;;;;1495298;39;20038;-78
2021/04/02 05:46:36;;;;;;;;;;;;;;;;;;1495252;39;20300;-78
2021/04/02 05:47:38;;;;;;;;;;;;;;;;;;1494561;39;20370;-79
2021/04/02 05:48:40;;;;;;;;;;;;;;;;;;1494812;39;20261;-79
2021/04/02 05:49:42;;;;;;;;;;;;;;;;;;1494699;39;20041;-79
2021/04/02 05:50:43;;;;;;;;;;;;;;;;;;1494708;39;20051;-79
2021/04/02 05:51:44;;;;;;;;;;;;;;;;;;1494103;39;20058;-79
2021/04/02 05:52:47;;;;;;;;;;;;;;;;;;1495259;39;19963;-78
2021/04/02 05:53:49;;;;;;;;;;;;;;;;;;1495309;39;19927;-78
2021/04/02 05:54:51;;;;;;;;;;;;;;;;;;1495352;39;19928;-79
2021/04/02 05:55:54;;;;;;;;;;;;;;;;;;1495113;39;20067;-79
2021/04/02 05:56:56;;;;;;;;;;;;;;;;;;1495272;39;19928;-78
2021/04/02 05:57:57;;;;;;;;;;;;;;;;;;1495280;39;19955;-79
2021/04/02 05:58:58;;;;;;;;;;;;;;;;;;1495421;39;20393;-78
2021/04/02 05:59:59;;;;;;;;;;;;;;;;;;1495210;39;19956;-79
2021/04/02 06:01:00;;;;;;;;;;;;;;;;;;1495094;39;20067;-79
2021/04/02 06:02:01;;;;;;;;;;;;;;;;;;1495208;39;19943;-79
2021/04/02 06:03:04;;;;;;;;;;;;;;;;;;1495368;39;20042;-80
2021/04/02 06:04:05;;;;;;;;;;;;;;;;;;1494213;39;20039;-79
2021/04/02 06:05:06;;;;;;;;;;;;;;;;;;1494862;39;20032;-78
2021/04/02 06:06:08;;;;;;;;;;;;;;;;;;1494215;39;20404;-79
2021/04/02 06:07:09;;;;;;;;;;;;;;;;;;1495114;39;19927;-79
2021/04/02 06:08:10;;;;;;;;;;;;;;;;;;1490103;39;19928;-79
2021/04/02 06:09:12;;;;;;;;;;;;;;;;;;1490588;39;20509;-79
2021/04/02 06:10:13;;;;;;;;;;;;;;;;;;1495087;39;20059;-79
2021/04/02 06:11:14;;;;;;;;;;;;;;;;;;1495126;39;19965;-79
2021/04/02 06:12:15;;;;;;;;;;;;;;;;;;1495263;39;20288;-79
2021/04/02 06:13:16;;;;;;;;;;;;;;;;;;1495332;39;19928;-80
2021/04/02 06:14:18;;;;;;;;;;;;;;;;;;1494626;39;19928;-79
2021/04/02 06:15:19;;;;;;;;;;;;;;;;;;1494288;39;20043;-78
2021/04/02 06:16:20;;;;;;;;;;;;;;;;;;1494731;39;19935;-81
2021/04/02 06:17:21;;;;;;;;;;;;;;;;;;1494939;39;20015;-79
2021/04/02 06:18:23;;;;;;;;;;;;;;;;;;1495058;39;20022;-79
2021/04/02 06:19:24;;;;;;;;;;;;;;;;;;1494831;39;19955;-79
2021/04/02 06:20:36;;;;;;;;;;;;;;;;;;1495075;39;19943;-79
2021/04/02 06:22:04;;;;;;;;;;;;;;;;;;1494599;39;20037;-80
2021/04/02 06:23:07;;;;;;;;;;;;;;;;;;1494045;39;19928;-80
2021/04/02 06:24:10;;;;;;;;;;;;;;;;;;1491230;39;20041;-82
2021/04/02 06:25:16;;;;;;;;;;;;;;;;;;1492224;39;20030;-81
2021/04/02 06:26:17;;;;;;;;;;;;;;;;;;1492814;39;20073;-78
2021/04/02 06:27:18;;;;;;;;;;;;;;;;;;1494533;39;19931;-78
2021/04/02 06:28:26;;;;;;;;;;;;;;;;;;1495088;39;20023;-80
2021/04/02 06:29:28;;;;;;;;;;;;;;;;;;1492649;39;19927;-80
2021/04/02 06:30:29;;;;;;;;;;;;;;;;;;1490386;39;20158;-79
2021/04/02 06:31:35;;;;;;;;;;;;;;;;;;1489584;39;20041;-78
2021/04/02 06:32:36;;;;;;;;;;;;;;;;;;1489884;39;20031;-78
2021/04/02 06:33:50;;;;;;;;;;;;;;;;;;1493624;39;19928;-80
2021/04/02 06:34:51;;;;;;;;;;;;;;;;;;1494661;39;19955;-78
2021/04/02 06:35:52;;;;;;;;;;;;;;;;;;1493681;39;19932;-79
2021/04/02 06:36:58;;;;;;;;;;;;;;;;;;1493454;39;19954;-79
2021/04/02 06:38:01;;;;;;;;;;;;;;;;;;1494661;39;20038;-80
2021/04/02 06:39:05;;;;;;;;;;;;;;;;;;1494362;39;19938;-80
2021/04/02 06:40:06;;;;;;;;;;;;;;;;;;1494386;39;20043;-82
2021/04/02 06:41:07;;;;;;;;;;;;;;;;;;1493539;39;19939;-79
2021/04/02 06:42:11;;;;;;;;;;;;;;;;;;1493689;39;19932;-81
2021/04/02 06:43:11;;;;;;;;;;;;;;;;;;1494507;39;19974;-79
2021/04/02 06:44:12;;;;;;;;;;;;;;;;;;1494443;39;20007;-80
2021/04/02 06:45:14;;;;;;;;;;;;;;;;;;1494766;39;19955;-79
2021/04/02 06:46:19;;;;;;;;;;;;;;;;;;1494658;39;19928;-80
2021/04/02 06:47:30;;;;;;;;;;;;;;;;;;1494663;39;19943;-80
2021/04/02 06:48:31;;;;;;;;;;;;;;;;;;1495088;39;19952;-81
2021/04/02 06:49:32;;;;;;;;;;;;;;;;;;1495178;39;20239;-81
2021/04/02 06:50:33;;;;;;;;;;;;;;;;;;1495234;39;19939;-79
2021/04/02 06:51:36;;;;;;;;;;;;;;;;;;1494982;39;19928;-80
2021/04/02 06:52:51;;;;;;;;;;;;;;;;;;1492155;39;19939;-80
2021/04/02 06:53:53;;;;;;;;;;;;;;;;;;1490093;39;19932;-81
2021/04/02 06:54:54;;;;;;;;;;;;;;;;;;1489925;39;20042;-80
2021/04/02 06:55:56;;;;;;;;;;;;;;;;;;1490340;39;20414;-80
2021/04/02 06:57:05;;;;;;;;;;;;;;;;;;1489996;39;20378;-81
2021/04/02 06:58:08;;;;;;;;;;;;;;;;;;1491141;39;19959;-79
2021/04/02 06:59:10;;;;;;;;;;;;;;;;;;1491978;39;19932;-83
2021/04/02 07:00:12;;;;;;;;;;;;;;;;;;1490521;39;19951;-81
2021/04/02 07:01:15;;;;;;;;;;;;;;;;;;1492847;39;19955;-83
2021/04/02 07:02:16;;;;;;;;;;;;;;;;;;1494364;39;19955;-82
2021/04/02 07:03:21;;;;;;;;;;;;;;;;;;1494820;39;19959;-79
2021/04/02 07:04:24;;;;;;;;;;;;;;;;;;1494241;39;20003;-75
2021/04/02 07:05:25;;;;;;;;;;;;;;;;;;1494973;39;19951;-78
2021/04/02 07:06:37;;;;;;;;;;;;;;;;;;1492549;39;20042;-78
2021/04/02 07:07:40;;;;;;;;;;;;;;;;;;1490689;39;20238;-80
2021/04/02 07:08:51;;;;;;;;;;;;;;;;;;1493547;39;19970;-80